createdAt,value
2018-08-04T00:00:01.477Z,27
2018-08-04T00:01:01.458Z,27
2018-08-04T00:02:01.899Z,27
2018-08-04T00:03:01.474Z,27.06
2018-08-04T00:04:01.484Z,27
2018-08-04T00:05:01.445Z,27
2018-08-04T00:06:01.523Z,27
2018-08-04T00:07:01.608Z,27
2018-08-04T00:08:01.552Z,27
2018-08-04T00:09:01.523Z,26.94
2018-08-04T00:10:01.585Z,26.94
2018-08-04T00:11:01.540Z,26.94
2018-08-04T00:12:01.534Z,26.87
2018-08-04T00:13:01.484Z,26.87
2018-08-04T00:14:01.555Z,26.81
2018-08-04T00:15:01.485Z,26.81
2018-08-04T00:16:01.452Z,26.87
2018-08-04T00:17:01.552Z,26.81
2018-08-04T00:18:01.575Z,26.75
2018-08-04T00:19:02.067Z,26.75
2018-08-04T00:20:01.482Z,26.75
2018-08-04T00:21:01.564Z,26.69
2018-08-04T00:22:01.851Z,26.75
2018-08-04T00:23:01.482Z,26.69
2018-08-04T00:24:01.507Z,26.69
2018-08-04T00:25:01.523Z,26.62
2018-08-04T00:26:01.594Z,26.62
2018-08-04T00:27:01.478Z,26.56
2018-08-04T00:28:01.637Z,26.5
2018-08-04T00:29:01.524Z,26.5
2018-08-04T00:30:01.515Z,26.5
2018-08-04T00:31:01.632Z,26.5
2018-08-04T00:32:01.522Z,26.5
2018-08-04T00:33:01.538Z,26.5
2018-08-04T00:34:01.522Z,26.44
2018-08-04T00:35:01.824Z,26.44
2018-08-04T00:36:01.526Z,26.37
2018-08-04T00:37:01.503Z,26.37
2018-08-04T00:38:01.567Z,26.37
2018-08-04T00:39:01.965Z,26.37
2018-08-04T00:40:01.564Z,26.31
2018-08-04T00:41:01.606Z,26.31
2018-08-04T00:42:01.637Z,26.31
2018-08-04T00:43:01.505Z,26.31
2018-08-04T00:44:01.626Z,26.19
2018-08-04T00:45:01.724Z,26.25
2018-08-04T00:46:01.595Z,26.25
2018-08-04T00:47:01.553Z,26.25
2018-08-04T00:48:01.686Z,26.25
2018-08-04T00:49:01.502Z,26.25
2018-08-04T00:50:02.271Z,26.25
2018-08-04T00:51:01.587Z,26.25
2018-08-04T00:52:01.867Z,26.19
2018-08-04T00:53:01.643Z,26.12
2018-08-04T00:54:01.513Z,26.12
2018-08-04T00:55:01.520Z,26.12
2018-08-04T00:56:01.573Z,26.06
2018-08-04T00:57:01.561Z,26.06
2018-08-04T00:58:01.632Z,26.06
2018-08-04T00:59:01.778Z,26.06
2018-08-04T01:00:01.916Z,26.06
2018-08-04T01:01:01.892Z,26
2018-08-04T01:02:01.661Z,26
2018-08-04T01:03:01.574Z,26
2018-08-04T01:04:01.547Z,26
2018-08-04T01:05:01.541Z,26
2018-08-04T01:06:01.551Z,26
2018-08-04T01:07:01.533Z,26
2018-08-04T01:08:01.568Z,26.06
2018-08-04T01:09:01.579Z,26.06
2018-08-04T01:10:01.555Z,26
2018-08-04T01:11:01.542Z,26
2018-08-04T01:12:01.569Z,26.06
2018-08-04T01:13:01.568Z,26.06
2018-08-04T01:14:01.594Z,26.12
2018-08-04T01:15:01.551Z,26.06
2018-08-04T01:16:01.597Z,26.06
2018-08-04T01:17:01.557Z,26.12
2018-08-04T01:18:01.563Z,26.12
2018-08-04T01:19:01.544Z,26.06
2018-08-04T01:20:01.561Z,26.12
2018-08-04T01:21:01.620Z,26.06
2018-08-04T01:22:01.555Z,26.06
2018-08-04T01:23:01.608Z,26.06
2018-08-04T01:24:01.703Z,26.06
2018-08-04T01:25:01.597Z,26.06
2018-08-04T01:26:01.596Z,26.06
2018-08-04T01:27:01.785Z,26.06
2018-08-04T01:28:01.627Z,26.06
2018-08-04T01:29:01.594Z,26.06
2018-08-04T01:30:01.773Z,26
2018-08-04T01:31:01.647Z,26
2018-08-04T01:32:01.761Z,26.06
2018-08-04T01:33:01.839Z,26.06
2018-08-04T01:34:02.046Z,26.06
2018-08-04T01:35:01.641Z,26.06
2018-08-04T01:36:01.597Z,26.06
2018-08-04T01:37:02.077Z,26.06
2018-08-04T01:38:01.603Z,26.06
2018-08-04T01:39:01.798Z,26
2018-08-04T01:40:01.605Z,26
2018-08-04T01:41:01.721Z,26
2018-08-04T01:42:02.296Z,25.94
2018-08-04T01:43:01.617Z,25.94
2018-08-04T01:44:01.756Z,25.88
2018-08-04T01:45:01.679Z,25.88
2018-08-04T01:46:01.676Z,25.88
2018-08-04T01:47:01.582Z,25.88
2018-08-04T01:48:01.741Z,25.88
2018-08-04T01:49:01.636Z,25.88
2018-08-04T01:50:01.607Z,25.88
2018-08-04T01:51:01.765Z,25.88
2018-08-04T01:52:01.613Z,25.94
2018-08-04T01:53:01.605Z,25.88
2018-08-04T01:54:01.605Z,25.88
2018-08-04T01:55:01.765Z,25.88
2018-08-04T01:56:01.592Z,25.88
2018-08-04T01:57:01.718Z,25.88
2018-08-04T01:58:01.635Z,25.81
2018-08-04T01:59:02.026Z,25.75
2018-08-04T02:00:01.739Z,25.75
2018-08-04T02:01:01.645Z,25.69
2018-08-04T02:02:01.623Z,25.62
2018-08-04T02:03:01.627Z,25.62
2018-08-04T02:04:01.667Z,25.62
2018-08-04T02:05:01.998Z,25.62
2018-08-04T02:06:01.645Z,25.62
2018-08-04T02:07:01.613Z,25.62
2018-08-04T02:08:01.631Z,25.62
2018-08-04T02:09:01.756Z,25.62
2018-08-04T02:10:01.653Z,25.62
2018-08-04T02:11:01.650Z,25.56
2018-08-04T02:12:01.822Z,25.56
2018-08-04T02:13:01.634Z,25.56
2018-08-04T02:14:01.669Z,25.56
2018-08-04T02:15:01.652Z,25.56
2018-08-04T02:16:01.686Z,25.56
2018-08-04T02:17:01.923Z,25.56
2018-08-04T02:18:01.674Z,25.5
2018-08-04T02:19:01.655Z,25.5
2018-08-04T02:20:01.639Z,25.5
2018-08-04T02:21:01.680Z,25.5
2018-08-04T02:22:01.633Z,25.44
2018-08-04T02:23:01.636Z,25.44
2018-08-04T02:24:01.658Z,25.44
2018-08-04T02:25:01.661Z,25.37
2018-08-04T02:26:01.687Z,25.44
2018-08-04T02:27:01.697Z,25.37
2018-08-04T02:28:01.636Z,25.37
2018-08-04T02:29:01.647Z,25.37
2018-08-04T02:30:01.671Z,25.37
2018-08-04T02:31:01.642Z,25.44
2018-08-04T02:32:01.692Z,25.44
2018-08-04T02:33:01.728Z,25.44
2018-08-04T02:34:01.665Z,25.37
2018-08-04T02:35:01.709Z,25.37
2018-08-04T02:36:01.684Z,25.37
2018-08-04T02:37:01.714Z,25.37
2018-08-04T02:38:01.668Z,25.37
2018-08-04T02:39:01.713Z,25.37
2018-08-04T02:40:01.672Z,25.31
2018-08-04T02:41:01.682Z,25.37
2018-08-04T02:42:01.927Z,25.31
2018-08-04T02:43:01.682Z,25.31
2018-08-04T02:44:01.698Z,25.31
2018-08-04T02:45:01.926Z,25.31
2018-08-04T02:46:01.914Z,25.25
2018-08-04T02:47:01.710Z,25.31
2018-08-04T02:48:01.765Z,25.25
2018-08-04T02:49:01.818Z,25.31
2018-08-04T02:50:01.782Z,25.25
2018-08-04T02:51:01.681Z,25.25
2018-08-04T02:52:01.942Z,25.25
2018-08-04T02:53:01.705Z,25.25
2018-08-04T02:54:01.718Z,25.25
2018-08-04T02:55:01.898Z,25.25
2018-08-04T02:56:01.819Z,25.25
2018-08-04T02:57:01.760Z,25.19
2018-08-04T02:58:01.759Z,25.19
2018-08-04T02:59:01.738Z,25.12
2018-08-04T03:00:01.813Z,25.12
2018-08-04T03:01:01.895Z,25.12
2018-08-04T03:02:01.746Z,25.12
2018-08-04T03:03:01.700Z,25.06
2018-08-04T03:04:01.921Z,25
2018-08-04T03:05:01.871Z,25
2018-08-04T03:06:01.764Z,25
2018-08-04T03:07:01.700Z,25
2018-08-04T03:08:01.722Z,25
2018-08-04T03:09:02.078Z,25
2018-08-04T03:10:01.875Z,25
2018-08-04T03:11:01.746Z,24.94
2018-08-04T03:12:01.855Z,24.94
2018-08-04T03:13:01.752Z,25
2018-08-04T03:14:01.931Z,24.94
2018-08-04T03:15:01.853Z,24.94
2018-08-04T03:16:01.730Z,24.94
2018-08-04T03:17:01.732Z,24.94
2018-08-04T03:18:01.732Z,24.87
2018-08-04T03:19:01.899Z,24.87
2018-08-04T03:20:01.812Z,24.87
2018-08-04T03:21:01.724Z,24.87
2018-08-04T03:22:01.734Z,24.81
2018-08-04T03:23:01.729Z,24.81
2018-08-04T03:24:01.759Z,24.81
2018-08-04T03:25:01.871Z,24.81
2018-08-04T03:26:01.779Z,24.81
2018-08-04T03:27:01.747Z,24.81
2018-08-04T03:28:01.807Z,24.81
2018-08-04T03:29:01.761Z,24.81
2018-08-04T03:30:01.992Z,24.81
2018-08-04T03:31:01.771Z,24.75
2018-08-04T03:32:01.994Z,24.75
2018-08-04T03:33:01.785Z,24.75
2018-08-04T03:34:01.820Z,24.75
2018-08-04T03:35:01.788Z,24.75
2018-08-04T03:36:01.939Z,24.75
2018-08-04T03:37:01.747Z,24.75
2018-08-04T03:38:01.750Z,24.75
2018-08-04T03:39:01.801Z,24.75
2018-08-04T03:40:01.755Z,24.69
2018-08-04T03:41:01.743Z,24.75
2018-08-04T03:42:01.751Z,24.69
2018-08-04T03:43:01.787Z,24.69
2018-08-04T03:44:01.784Z,24.69
2018-08-04T03:45:01.781Z,24.69
2018-08-04T03:46:01.786Z,24.69
2018-08-04T03:47:01.767Z,24.69
2018-08-04T03:48:01.758Z,24.63
2018-08-04T03:49:01.782Z,24.63
2018-08-04T03:50:01.802Z,24.63
2018-08-04T03:51:01.807Z,24.63
2018-08-04T03:52:01.819Z,24.63
2018-08-04T03:53:01.763Z,24.63
2018-08-04T03:54:01.769Z,24.56
2018-08-04T03:55:01.783Z,24.56
2018-08-04T03:56:01.777Z,24.56
2018-08-04T03:57:02.235Z,24.56
2018-08-04T03:58:01.953Z,24.56
2018-08-04T03:59:01.748Z,24.5
2018-08-04T04:00:01.979Z,24.56
2018-08-04T04:01:01.771Z,24.5
2018-08-04T04:02:01.815Z,24.5
2018-08-04T04:03:01.832Z,24.44
2018-08-04T04:04:01.867Z,24.44
2018-08-04T04:05:01.771Z,24.37
2018-08-04T04:06:01.771Z,24.37
2018-08-04T04:07:01.796Z,24.37
2018-08-04T04:08:01.832Z,24.37
2018-08-04T04:09:01.845Z,24.37
2018-08-04T04:10:01.779Z,24.37
2018-08-04T04:11:01.960Z,24.37
2018-08-04T04:12:01.886Z,24.44
2018-08-04T04:13:01.882Z,24.44
2018-08-04T04:14:01.827Z,24.44
2018-08-04T04:15:01.839Z,24.5
2018-08-04T04:16:01.889Z,24.5
2018-08-04T04:17:01.858Z,24.5
2018-08-04T04:18:01.888Z,24.56
2018-08-04T04:19:01.939Z,24.44
2018-08-04T04:20:01.866Z,24.44
2018-08-04T04:21:02.162Z,24.37
2018-08-04T04:22:01.841Z,24.44
2018-08-04T04:23:01.860Z,24.37
2018-08-04T04:24:01.957Z,24.37
2018-08-04T04:25:01.827Z,24.37
2018-08-04T04:26:01.850Z,24.37
2018-08-04T04:27:01.835Z,24.31
2018-08-04T04:28:01.789Z,24.31
2018-08-04T04:29:01.814Z,24.37
2018-08-04T04:30:01.833Z,24.31
2018-08-04T04:31:01.840Z,24.37
2018-08-04T04:32:01.807Z,24.37
2018-08-04T04:33:02.050Z,24.37
2018-08-04T04:34:01.954Z,24.37
2018-08-04T04:35:01.821Z,24.37
2018-08-04T04:36:01.921Z,24.44
2018-08-04T04:37:01.915Z,24.44
2018-08-04T04:38:01.917Z,24.44
2018-08-04T04:39:02.140Z,24.44
2018-08-04T04:40:01.835Z,24.44
2018-08-04T04:41:02.071Z,24.44
2018-08-04T04:42:01.794Z,24.37
2018-08-04T04:43:02.014Z,24.37
2018-08-04T04:44:02.034Z,24.31
2018-08-04T04:45:02.218Z,24.37
2018-08-04T04:46:02.088Z,24.37
2018-08-04T04:47:01.869Z,24.37
2018-08-04T04:48:01.891Z,24.37
2018-08-04T04:49:02.056Z,24.44
2018-08-04T04:50:02.121Z,24.44
2018-08-04T04:51:02.082Z,24.44
2018-08-04T04:52:01.870Z,24.37
2018-08-04T04:53:01.859Z,24.37
2018-08-04T04:54:01.844Z,24.44
2018-08-04T04:55:01.832Z,24.37
2018-08-04T04:56:01.846Z,24.37
2018-08-04T04:57:01.864Z,24.44
2018-08-04T04:58:01.883Z,24.44
2018-08-04T04:59:01.927Z,24.44
2018-08-04T05:00:01.864Z,24.5
2018-08-04T05:01:01.901Z,24.44
2018-08-04T05:02:02.422Z,24.5
2018-08-04T05:03:01.867Z,24.5
2018-08-04T05:04:01.884Z,24.5
2018-08-04T05:05:01.927Z,24.56
2018-08-04T05:06:01.868Z,24.56
2018-08-04T05:07:02.059Z,24.5
2018-08-04T05:08:01.891Z,24.56
2018-08-04T05:09:01.881Z,24.56
2018-08-04T05:10:01.879Z,24.56
2018-08-04T05:11:01.854Z,24.63
2018-08-04T05:12:01.876Z,24.63
2018-08-04T05:13:02.112Z,24.63
2018-08-04T05:14:01.891Z,24.63
2018-08-04T05:15:01.877Z,24.63
2018-08-04T05:16:01.847Z,24.69
2018-08-04T05:17:01.903Z,24.69
2018-08-04T05:18:01.869Z,24.69
2018-08-04T05:19:02.027Z,24.69
2018-08-04T05:20:01.904Z,24.69
2018-08-04T05:21:01.895Z,24.69
2018-08-04T05:22:01.873Z,24.75
2018-08-04T05:23:01.879Z,24.75
2018-08-04T05:24:02.113Z,24.75
2018-08-04T05:25:01.867Z,24.75
2018-08-04T05:26:01.875Z,24.75
2018-08-04T05:27:01.935Z,24.81
2018-08-04T05:28:01.961Z,24.81
2018-08-04T05:29:02.110Z,24.81
2018-08-04T05:30:01.971Z,24.87
2018-08-04T05:31:02.235Z,24.87
2018-08-04T05:32:02.546Z,24.81
2018-08-04T05:33:01.905Z,24.81
2018-08-04T05:34:01.905Z,24.87
2018-08-04T05:35:01.910Z,24.87
2018-08-04T05:36:01.888Z,24.87
2018-08-04T05:37:02.078Z,24.94
2018-08-04T05:38:01.922Z,24.94
2018-08-04T05:39:01.952Z,24.94
2018-08-04T05:40:01.921Z,25
2018-08-04T05:41:01.900Z,25
2018-08-04T05:42:02.083Z,25
2018-08-04T05:43:02.223Z,25
2018-08-04T05:44:02.045Z,25.06
2018-08-04T05:45:02.095Z,25.06
2018-08-04T05:46:01.931Z,25.12
2018-08-04T05:47:01.991Z,25.12
2018-08-04T05:48:01.992Z,25.19
2018-08-04T05:49:01.957Z,25.19
2018-08-04T05:50:02.810Z,25.19
2018-08-04T05:51:01.897Z,25.25
2018-08-04T05:52:02.113Z,25.19
2018-08-04T05:53:01.986Z,25.25
2018-08-04T05:54:01.949Z,25.31
2018-08-04T05:55:01.955Z,25.25
2018-08-04T05:56:02.233Z,25.31
2018-08-04T05:57:01.926Z,25.31
2018-08-04T05:58:02.425Z,25.31
2018-08-04T05:59:02.116Z,25.37
2018-08-04T06:00:01.982Z,25.37
2018-08-04T06:01:01.980Z,25.37
2018-08-04T06:02:02.544Z,25.37
2018-08-04T06:03:01.915Z,25.44
2018-08-04T06:04:01.934Z,25.44
2018-08-04T06:05:02.060Z,25.5
2018-08-04T06:06:01.939Z,25.44
2018-08-04T06:07:01.927Z,25.44
2018-08-04T06:08:01.971Z,25.5
2018-08-04T06:09:01.918Z,25.5
2018-08-04T06:10:01.940Z,25.5
2018-08-04T06:11:02.009Z,25.5
2018-08-04T06:12:01.959Z,25.56
2018-08-04T06:13:01.930Z,25.56
2018-08-04T06:14:01.990Z,25.62
2018-08-04T06:15:02.003Z,25.62
2018-08-04T06:16:01.950Z,25.62
2018-08-04T06:17:01.929Z,25.62
2018-08-04T06:18:01.945Z,25.69
2018-08-04T06:19:01.944Z,25.69
2018-08-04T06:20:01.971Z,25.69
2018-08-04T06:21:02.013Z,25.69
2018-08-04T06:22:02.315Z,25.69
2018-08-04T06:23:01.972Z,25.69
2018-08-04T06:24:02.133Z,25.69
2018-08-04T06:25:02.176Z,25.75
2018-08-04T06:26:01.969Z,25.75
2018-08-04T06:27:01.925Z,25.75
2018-08-04T06:28:01.981Z,25.81
2018-08-04T06:29:01.939Z,25.81
2018-08-04T06:30:02.374Z,25.81
2018-08-04T06:31:02.274Z,25.81
2018-08-04T06:32:01.962Z,25.81
2018-08-04T06:33:01.958Z,25.88
2018-08-04T06:34:01.953Z,25.88
2018-08-04T06:35:02.116Z,25.88
2018-08-04T06:36:02.267Z,25.94
2018-08-04T06:37:02.049Z,26
2018-08-04T06:38:02.115Z,26
2018-08-04T06:39:02.193Z,26
2018-08-04T06:40:02.125Z,26.06
2018-08-04T06:41:02.092Z,26.06
2018-08-04T06:42:02.110Z,26.12
2018-08-04T06:43:02.111Z,26.12
2018-08-04T06:44:02.013Z,26.19
2018-08-04T06:45:02.108Z,26.19
2018-08-04T06:46:02.094Z,26.25
2018-08-04T06:47:01.991Z,26.19
2018-08-04T06:48:02.068Z,26.25
2018-08-04T06:49:01.992Z,26.25
2018-08-04T06:50:02.045Z,26.25
2018-08-04T06:51:02.105Z,26.31
2018-08-04T06:52:02.044Z,26.31
2018-08-04T06:53:02.338Z,26.31
2018-08-04T06:54:02.138Z,26.37
2018-08-04T06:55:02.119Z,26.37
2018-08-04T06:56:02.131Z,26.44
2018-08-04T06:57:02.131Z,26.44
2018-08-04T06:58:02.195Z,26.44
2018-08-04T06:59:02.064Z,26.44
2018-08-04T07:00:02.227Z,26.5
2018-08-04T07:01:02.346Z,26.5
2018-08-04T07:02:02.090Z,26.5
2018-08-04T07:03:02.041Z,26.5
2018-08-04T07:04:02.296Z,26.5
2018-08-04T07:05:02.055Z,26.5
2018-08-04T07:06:02.021Z,26.5
2018-08-04T07:07:02.087Z,26.56
2018-08-04T07:08:02.005Z,26.56
2018-08-04T07:09:02.293Z,26.62
2018-08-04T07:10:02.055Z,26.62
2018-08-04T07:11:02.077Z,26.69
2018-08-04T07:12:03.572Z,26.69
2018-08-04T07:13:02.833Z,26.75
2018-08-04T07:14:02.027Z,26.81
2018-08-04T07:15:02.193Z,26.81
2018-08-04T07:16:02.060Z,26.81
2018-08-04T07:17:02.037Z,26.87
2018-08-04T07:18:02.131Z,26.94
2018-08-04T07:19:02.070Z,26.94
2018-08-04T07:20:02.125Z,26.94
2018-08-04T07:21:02.113Z,27
2018-08-04T07:22:02.063Z,27
2018-08-04T07:23:02.713Z,27.06
2018-08-04T07:24:02.116Z,27.06
2018-08-04T07:25:02.073Z,27.13
2018-08-04T07:26:02.059Z,27.19
2018-08-04T07:27:02.073Z,27.13
2018-08-04T07:28:02.023Z,27.19
2018-08-04T07:29:02.922Z,27.19
2018-08-04T07:30:02.081Z,27.25
2018-08-04T07:31:02.052Z,27.25
2018-08-04T07:32:02.094Z,27.31
2018-08-04T07:33:02.050Z,27.37
2018-08-04T07:34:02.065Z,27.37
2018-08-04T07:35:02.075Z,27.37
2018-08-04T07:36:02.092Z,27.37
2018-08-04T07:37:02.071Z,27.37
2018-08-04T07:38:02.113Z,27.37
2018-08-04T07:39:02.087Z,27.37
2018-08-04T07:40:02.081Z,27.44
2018-08-04T07:41:02.687Z,27.5
2018-08-04T07:42:02.122Z,27.5
2018-08-04T07:43:02.074Z,27.5
2018-08-04T07:44:02.108Z,27.56
2018-08-04T07:45:02.057Z,27.5
2018-08-04T07:46:02.087Z,27.5
2018-08-04T07:47:02.236Z,27.56
2018-08-04T07:48:02.062Z,27.56
2018-08-04T07:49:02.622Z,27.62
2018-08-04T07:50:02.303Z,27.75
2018-08-04T07:51:02.128Z,27.75
2018-08-04T07:52:02.168Z,27.81
2018-08-04T07:53:02.097Z,27.81
2018-08-04T07:54:02.438Z,27.87
2018-08-04T07:55:02.099Z,27.87
2018-08-04T07:56:02.067Z,27.94
2018-08-04T07:57:02.072Z,27.94
2018-08-04T07:58:02.112Z,28
2018-08-04T07:59:02.097Z,28.06
2018-08-04T08:00:02.129Z,28.06
2018-08-04T08:01:02.104Z,28.06
2018-08-04T08:02:02.151Z,28.06
2018-08-04T08:03:02.136Z,28.06
2018-08-04T08:04:02.114Z,28.12
2018-08-04T08:05:02.761Z,28.12
2018-08-04T08:06:02.074Z,28.19
2018-08-04T08:07:02.306Z,28.19
2018-08-04T08:08:02.145Z,28.31
2018-08-04T08:09:02.164Z,28.31
2018-08-04T08:10:02.105Z,28.38
2018-08-04T08:11:02.970Z,28.44
2018-08-04T08:12:02.116Z,28.5
2018-08-04T08:13:02.164Z,28.56
2018-08-04T08:14:02.119Z,28.56
2018-08-04T08:15:02.203Z,28.69
2018-08-04T08:16:02.286Z,28.69
2018-08-04T08:17:02.124Z,28.81
2018-08-04T08:18:02.126Z,28.81
2018-08-04T08:19:02.079Z,28.87
2018-08-04T08:20:02.306Z,29
2018-08-04T08:21:02.515Z,29.06
2018-08-04T08:22:02.114Z,29.12
2018-08-04T08:23:02.652Z,29.19
2018-08-04T08:24:02.267Z,29.25
2018-08-04T08:25:02.116Z,29.31
2018-08-04T08:26:02.119Z,29.37
2018-08-04T08:27:04.725Z,29.37
2018-08-04T08:28:02.180Z,29.44
2018-08-04T08:29:02.314Z,29.44
2018-08-04T08:30:02.120Z,29.5
2018-08-04T08:31:02.118Z,29.56
2018-08-04T08:32:02.151Z,29.56
2018-08-04T08:33:02.130Z,29.56
2018-08-04T08:34:02.130Z,29.63
2018-08-04T08:35:02.135Z,29.63
2018-08-04T08:36:02.117Z,29.63
2018-08-04T08:37:02.175Z,29.69
2018-08-04T08:38:02.402Z,29.69
2018-08-04T08:39:02.125Z,29.75
2018-08-04T08:40:02.143Z,29.75
2018-08-04T08:41:02.164Z,29.87
2018-08-04T08:42:02.192Z,29.87
2018-08-04T08:43:02.114Z,29.87
2018-08-04T08:44:02.149Z,29.94
2018-08-04T08:45:02.139Z,29.87
2018-08-04T08:46:02.181Z,29.87
2018-08-04T08:47:02.510Z,29.94
2018-08-04T08:48:02.163Z,30
2018-08-04T08:49:02.217Z,30
2018-08-04T08:50:02.609Z,30.06
2018-08-04T08:51:02.169Z,30.12
2018-08-04T08:52:02.176Z,30.12
2018-08-04T08:53:02.850Z,30.19
2018-08-04T08:54:04.298Z,30.25
2018-08-04T08:55:02.206Z,30.31
2018-08-04T08:56:02.180Z,30.37
2018-08-04T08:57:02.179Z,30.44
2018-08-04T08:58:02.172Z,30.44
2018-08-04T08:59:02.205Z,30.44
2018-08-04T09:00:02.183Z,30.5
2018-08-04T09:01:02.207Z,30.5
2018-08-04T09:02:02.157Z,30.5
2018-08-04T09:03:02.221Z,30.56
2018-08-04T09:04:02.197Z,30.56
2018-08-04T09:05:02.413Z,30.62
2018-08-04T09:06:02.187Z,30.69
2018-08-04T09:07:02.170Z,30.69
2018-08-04T09:08:02.158Z,30.75
2018-08-04T09:09:02.163Z,30.75
2018-08-04T09:10:02.215Z,30.81
2018-08-04T09:11:02.217Z,30.81
2018-08-04T09:12:02.304Z,30.81
2018-08-04T09:13:02.311Z,30.88
2018-08-04T09:14:02.181Z,30.88
2018-08-04T09:15:02.206Z,30.88
2018-08-04T09:16:02.213Z,30.94
2018-08-04T09:17:02.288Z,30.94
2018-08-04T09:18:02.231Z,31
2018-08-04T09:19:02.258Z,31
2018-08-04T09:20:02.210Z,31
2018-08-04T09:21:02.189Z,31.06
2018-08-04T09:22:02.326Z,31.12
2018-08-04T09:23:02.659Z,31.12
2018-08-04T09:24:02.356Z,31.19
2018-08-04T09:25:02.180Z,31.31
2018-08-04T09:26:02.277Z,31.25
2018-08-04T09:27:02.315Z,31.31
2018-08-04T09:28:02.388Z,31.37
2018-08-04T09:29:02.219Z,31.31
2018-08-04T09:30:02.232Z,31.31
2018-08-04T09:31:02.302Z,31.31
2018-08-04T09:32:02.286Z,31.31
2018-08-04T09:33:02.200Z,31.44
2018-08-04T09:34:02.260Z,31.5
2018-08-04T09:35:02.210Z,31.5
2018-08-04T09:36:02.189Z,31.5
2018-08-04T09:37:02.280Z,31.56
2018-08-04T09:38:02.508Z,31.62
2018-08-04T09:39:02.618Z,31.69
2018-08-04T09:40:02.209Z,31.81
2018-08-04T09:41:02.431Z,31.81
2018-08-04T09:42:02.439Z,31.87
2018-08-04T09:43:02.222Z,31.94
2018-08-04T09:44:02.208Z,32.13
2018-08-04T09:45:02.264Z,32.13
2018-08-04T09:46:02.338Z,32.19
2018-08-04T09:47:02.832Z,32.19
2018-08-04T09:48:02.446Z,32.19
2018-08-04T09:49:02.218Z,32.19
2018-08-04T09:50:02.459Z,32.13
2018-08-04T09:51:02.207Z,32.19
2018-08-04T09:52:03.205Z,32.13
2018-08-04T09:53:02.248Z,32.25
2018-08-04T09:54:02.219Z,32.31
2018-08-04T09:55:02.319Z,32.25
2018-08-04T09:56:02.252Z,32.25
2018-08-04T09:57:02.252Z,32.38
2018-08-04T09:58:02.249Z,32.38
2018-08-04T09:59:02.220Z,32.44
2018-08-04T10:00:02.227Z,32.44
2018-08-04T10:01:02.289Z,32.44
2018-08-04T10:02:02.242Z,32.44
2018-08-04T10:03:02.326Z,32.44
2018-08-04T10:04:02.361Z,32.44
2018-08-04T10:05:04.809Z,32.38
2018-08-04T10:06:02.342Z,32.38
2018-08-04T10:07:02.386Z,32.44
2018-08-04T10:08:02.257Z,32.38
2018-08-04T10:09:02.264Z,32.44
2018-08-04T10:10:02.304Z,32.5
2018-08-04T10:11:02.253Z,32.5
2018-08-04T10:12:02.249Z,32.56
2018-08-04T10:13:02.298Z,32.63
2018-08-04T10:14:02.278Z,32.63
2018-08-04T10:15:02.390Z,32.63
2018-08-04T10:16:02.287Z,32.63
2018-08-04T10:17:02.278Z,32.63
2018-08-04T10:18:02.251Z,32.69
2018-08-04T10:19:02.322Z,32.75
2018-08-04T10:20:02.323Z,32.88
2018-08-04T10:21:02.300Z,32.81
2018-08-04T10:22:02.321Z,32.88
2018-08-04T10:23:02.280Z,32.94
2018-08-04T10:24:02.416Z,32.88
2018-08-04T10:25:02.336Z,32.88
2018-08-04T10:26:02.904Z,32.88
2018-08-04T10:27:02.443Z,32.88
2018-08-04T10:28:02.420Z,32.81
2018-08-04T10:29:02.311Z,32.81
2018-08-04T10:30:02.309Z,32.88
2018-08-04T10:31:02.889Z,32.88
2018-08-04T10:32:03.799Z,33
2018-08-04T10:33:02.327Z,33
2018-08-04T10:34:02.360Z,33.13
2018-08-04T10:35:02.583Z,33.31
2018-08-04T10:36:02.450Z,33.31
2018-08-04T10:37:02.361Z,33.31
2018-08-04T10:38:03.354Z,33.31
2018-08-04T10:39:02.299Z,33.31
2018-08-04T10:40:02.488Z,33.38
2018-08-04T10:41:02.656Z,33.38
2018-08-04T10:42:03.337Z,33.44
2018-08-04T10:43:02.422Z,33.56
2018-08-04T10:44:07.398Z,33.69
2018-08-04T10:45:02.545Z,33.81
2018-08-04T10:46:02.364Z,33.81
2018-08-04T10:47:02.321Z,33.75
2018-08-04T10:48:02.415Z,33.81
2018-08-04T10:49:02.369Z,33.81
2018-08-04T10:50:02.510Z,33.75
2018-08-04T10:51:02.533Z,33.75
2018-08-04T10:52:02.408Z,33.69
2018-08-04T10:53:02.358Z,33.69
2018-08-04T10:54:02.367Z,33.69
2018-08-04T10:55:02.383Z,33.69
2018-08-04T10:56:02.339Z,33.75
2018-08-04T10:57:02.659Z,33.63
2018-08-04T10:58:02.348Z,33.56
2018-08-04T10:59:02.335Z,33.63
2018-08-04T11:00:02.356Z,33.56
2018-08-04T11:01:02.500Z,33.63
2018-08-04T11:02:02.332Z,33.63
2018-08-04T11:03:02.308Z,33.63
2018-08-04T11:04:02.517Z,33.63
2018-08-04T11:05:02.339Z,33.63
2018-08-04T11:06:02.463Z,33.75
2018-08-04T11:07:02.504Z,33.88
2018-08-04T11:08:02.441Z,33.88
2018-08-04T11:09:02.505Z,33.88
2018-08-04T11:10:02.626Z,33.88
2018-08-04T11:11:02.365Z,33.88
2018-08-04T11:12:02.408Z,33.94
2018-08-04T11:13:02.552Z,33.94
2018-08-04T11:14:02.898Z,34
2018-08-04T11:15:02.761Z,34.13
2018-08-04T11:16:02.454Z,34.13
2018-08-04T11:17:02.416Z,34.13
2018-08-04T11:18:02.861Z,34.19
2018-08-04T11:19:02.564Z,34.13
2018-08-04T11:20:03.522Z,34.06
2018-08-04T11:21:02.384Z,34.06
2018-08-04T11:22:03.775Z,34.06
2018-08-04T11:23:04.550Z,34.06
2018-08-04T11:24:02.840Z,34.19
2018-08-04T11:25:02.500Z,34.25
2018-08-04T11:26:02.417Z,34.25
2018-08-04T11:27:02.441Z,34.25
2018-08-04T11:28:02.517Z,34.38
2018-08-04T11:29:02.550Z,34.38
2018-08-04T11:30:02.535Z,34.38
2018-08-04T11:31:02.571Z,34.44
2018-08-04T11:32:02.542Z,34.5
2018-08-04T11:33:02.553Z,34.56
2018-08-04T11:34:02.466Z,34.56
2018-08-04T11:35:02.472Z,34.5
2018-08-04T11:36:02.486Z,34.44
2018-08-04T11:37:03.533Z,34.44
2018-08-04T11:38:02.602Z,34.38
2018-08-04T11:39:02.886Z,34.25
2018-08-04T11:40:02.634Z,34.25
2018-08-04T11:41:02.504Z,34.13
2018-08-04T11:42:02.517Z,34.13
2018-08-04T11:43:02.526Z,34
2018-08-04T11:44:02.522Z,34
2018-08-04T11:45:02.652Z,34.06
2018-08-04T11:46:02.535Z,34
2018-08-04T11:47:02.569Z,34
2018-08-04T11:48:02.775Z,33.94
2018-08-04T11:49:02.561Z,33.94
2018-08-04T11:50:02.588Z,33.88
2018-08-04T11:51:02.430Z,33.88
2018-08-04T11:52:02.590Z,33.88
2018-08-04T11:53:02.502Z,33.88
2018-08-04T11:54:02.508Z,33.88
2018-08-04T11:55:02.608Z,33.94
2018-08-04T11:56:03.560Z,33.88
2018-08-04T11:57:02.436Z,33.81
2018-08-04T11:58:02.515Z,33.81
2018-08-04T11:59:02.459Z,33.81
2018-08-04T12:00:02.460Z,33.81
2018-08-04T12:01:02.566Z,33.81
2018-08-04T12:02:03.233Z,33.81
2018-08-04T12:03:02.436Z,33.81
2018-08-04T12:04:02.579Z,33.81
2018-08-04T12:05:02.501Z,33.81
2018-08-04T12:06:02.439Z,33.88
2018-08-04T12:07:02.587Z,33.94
2018-08-04T12:08:02.432Z,34
2018-08-04T12:09:02.509Z,34
2018-08-04T12:10:02.535Z,34.13
2018-08-04T12:11:02.852Z,34.19
2018-08-04T12:12:02.487Z,34.25
2018-08-04T12:13:02.648Z,34.31
2018-08-04T12:14:02.481Z,34.38
2018-08-04T12:15:02.615Z,34.44
2018-08-04T12:16:02.566Z,34.5
2018-08-04T12:17:02.498Z,34.56
2018-08-04T12:18:02.888Z,34.63
2018-08-04T12:19:02.566Z,34.69
2018-08-04T12:20:03.748Z,34.75
2018-08-04T12:21:03.145Z,34.75
2018-08-04T12:22:02.515Z,34.88
2018-08-04T12:23:02.449Z,34.88
2018-08-04T12:24:02.482Z,35
2018-08-04T12:25:02.660Z,35
2018-08-04T12:26:02.505Z,35.06
2018-08-04T12:27:02.572Z,35.06
2018-08-04T12:28:03.654Z,35.13
2018-08-04T12:29:02.500Z,35.19
2018-08-04T12:30:02.670Z,35.19
2018-08-04T12:31:02.552Z,35.19
2018-08-04T12:32:02.568Z,35.25
2018-08-04T12:33:02.610Z,35.25
2018-08-04T12:34:02.571Z,35.25
2018-08-04T12:35:02.438Z,35.25
2018-08-04T12:36:02.449Z,35.31
2018-08-04T12:37:02.608Z,35.25
2018-08-04T12:38:02.464Z,35.25
2018-08-04T12:39:02.449Z,35.25
2018-08-04T12:40:02.613Z,35.19
2018-08-04T12:41:02.612Z,35.31
2018-08-04T12:42:02.494Z,35.31
2018-08-04T12:43:02.543Z,35.31
2018-08-04T12:44:02.496Z,35.31
2018-08-04T12:45:02.468Z,35.31
2018-08-04T12:46:02.653Z,35.19
2018-08-04T12:47:02.498Z,35.13
2018-08-04T12:48:02.502Z,35.13
2018-08-04T12:49:02.590Z,35.13
2018-08-04T12:50:02.489Z,35.19
2018-08-04T12:51:02.492Z,35.25
2018-08-04T12:52:02.601Z,35.38
2018-08-04T12:53:02.471Z,35.38
2018-08-04T12:54:02.501Z,35.38
2018-08-04T12:55:02.632Z,35.38
2018-08-04T12:56:02.473Z,35.56
2018-08-04T12:57:02.556Z,35.56
2018-08-04T12:58:02.642Z,35.63
2018-08-04T12:59:02.493Z,35.56